Time;durP1;ratioP1;P1;durP2;ratioP2;P2;SDS_P1;SDS_P2;PMS_P1;PMS_P2;Temp;Humidity;BMP_temperature;BMP_pressure;BME280_temperature;BME280_humidity;BME280_pressure;Samples;Min_cycle;Max_cycle;Signal;HPM_P1;HPM_P2
2023/02/26 00:01:50;;;;;;;3.80;1.90;;;-0.10;99.90;;;;;;6194399;23;20351;-83
2023/02/26 00:04:17;;;;;;;3.53;1.80;;;0.00;99.90;;;;;;6196459;23;20336;-82
2023/02/26 00:06:51;;;;;;;4.35;1.80;;;-0.20;99.90;;;;;;6193671;23;20346;-85
2023/02/26 00:09:18;;;;;;;4.05;1.90;;;-0.20;99.90;;;;;;6191618;23;20413;-83
2023/02/26 00:11:45;;;;;;;4.68;2.03;;;-0.10;99.90;;;;;;6190251;23;20343;-84
2023/02/26 00:14:14;;;;;;;5.15;2.55;;;-0.10;99.90;;;;;;6161760;23;20473;-83
2023/02/26 00:16:40;;;;;;;4.60;2.38;;;0.00;99.90;;;;;;6161072;23;20874;-83
2023/02/26 00:19:09;;;;;;;4.03;2.25;;;-0.10;99.90;;;;;;6185392;23;20331;-84
2023/02/26 00:21:36;;;;;;;9.32;5.50;;;-0.20;99.90;;;;;;6187268;23;20474;-87
2023/02/26 00:24:01;;;;;;;14.77;8.23;;;-0.10;99.90;;;;;;6189481;23;20396;-87
2023/02/26 00:26:28;;;;;;;9.23;4.68;;;-0.10;99.90;;;;;;6162507;23;20352;-84
2023/02/26 00:28:55;;;;;;;6.25;2.85;;;-0.10;99.90;;;;;;6160325;23;20372;-83
2023/02/26 00:31:24;;;;;;;4.28;2.10;;;-0.10;99.90;;;;;;6161020;23;20476;-83
2023/02/26 00:33:51;;;;;;;4.65;2.00;;;-0.10;99.90;;;;;;6186813;23;20344;-85
2023/02/26 00:36:23;;;;;;;3.80;1.98;;;0.00;99.90;;;;;;6159019;23;20363;-83
2023/02/26 00:39:08;;;;;;;3.70;2.30;;;-0.30;99.90;;;;;;6185420;23;20352;-83
2023/02/26 00:41:35;;;;;;;5.70;2.70;;;-0.20;99.90;;;;;;6185871;23;20343;-84
2023/02/26 00:44:01;;;;;;;7.57;4.50;;;-0.20;99.90;;;;;;6184771;23;20343;-86
2023/02/26 00:46:38;;;;;;;6.85;3.80;;;-0.20;99.90;;;;;;6158587;23;20675;-87
2023/02/26 00:49:32;;;;;;;4.40;2.25;;;-0.30;99.90;;;;;;6185693;23;20691;-83
2023/02/26 00:52:01;;;;;;;4.35;2.17;;;-0.10;99.90;;;;;;6179864;22;20408;-83
2023/02/26 00:54:29;;;;;;;3.85;2.88;;;0.00;99.90;;;;;;6211868;23;20393;-82
2023/02/26 00:56:57;;;;;;;5.28;2.70;;;0.00;99.90;;;;;;6216472;23;20405;-83
2023/02/26 00:59:23;;;;;;;5.13;3.33;;;0.10;99.90;;;;;;6191743;23;20895;-84
2023/02/26 01:01:50;;;;;;;4.30;2.35;;;0.10;99.90;;;;;;6219074;23;20361;-82
2023/02/26 01:04:19;;;;;;;5.00;1.85;;;0.00;99.90;;;;;;6216886;23;20346;-83
2023/02/26 01:06:51;;;;;;;4.28;1.77;;;0.00;99.90;;;;;;6219486;23;20346;-82
2023/02/26 01:09:27;;;;;;;4.22;1.85;;;0.00;99.90;;;;;;6220175;23;20353;-83
2023/02/26 01:11:55;;;;;;;3.22;1.80;;;0.10;99.90;;;;;;6191454;23;20354;-84
2023/02/26 01:14:21;;;;;;;2.67;1.70;;;0.00;99.90;;;;;;6191505;23;20358;-83
2023/02/26 01:17:05;;;;;;;3.13;1.88;;;0.00;99.90;;;;;;6216547;23;20373;-83
2023/02/26 01:19:50;;;;;;;4.20;1.70;;;0.10;99.90;;;;;;6214513;23;20478;-83
2023/02/26 01:22:27;;;;;;;3.45;1.60;;;0.10;99.90;;;;;;6213904;23;20369;-83
2023/02/26 01:25:00;;;;;;;3.65;1.65;;;0.20;99.90;;;;;;6214376;23;20437;-82
2023/02/26 01:27:26;;;;;;;3.47;1.75;;;0.40;99.90;;;;;;6191298;23;20651;-82
2023/02/26 01:29:52;;;;;;;3.05;1.77;;;0.20;99.90;;;;;;6189913;23;20369;-82
2023/02/26 01:33:01;;;;;;;3.17;2.00;;;0.20;99.90;;;;;;6214519;23;20342;-84
2023/02/26 01:35:41;;;;;;;3.27;1.50;;;0.20;99.90;;;;;;6091733;23;20392;-82
2023/02/26 01:38:19;;;;;;;4.47;1.63;;;0.30;99.90;;;;;;6091470;23;20372;-83
2023/02/26 01:40:57;;;;;;;3.35;1.77;;;0.30;99.90;;;;;;6146659;23;20870;-84
2023/02/26 01:43:46;;;;;;;2.85;1.40;;;0.40;99.90;;;;;;6214653;23;20357;-84
2023/02/26 01:46:33;;;;;;;5.20;1.70;;;0.50;99.90;;;;;;6215464;23;20828;-83
2023/02/26 01:48:59;;;;;;;3.10;1.50;;;0.40;99.90;;;;;;6217123;23;20338;-82
2023/02/26 01:51:48;;;;;;;3.23;1.40;;;0.40;99.90;;;;;;6191921;23;20438;-83
2023/02/26 01:54:17;;;;;;;3.10;1.60;;;0.50;99.90;;;;;;6214714;23;20377;-84
2023/02/26 01:56:44;;;;;;;3.65;1.40;;;0.40;99.90;;;;;;6216779;23;20345;-85
2023/02/26 01:59:15;;;;;;;3.17;1.57;;;0.50;99.90;;;;;;6218577;23;20338;-84
2023/02/26 02:01:41;;;;;;;2.88;1.33;;;0.50;99.90;;;;;;6219736;23;20396;-82
2023/02/26 02:04:13;;;;;;;2.67;1.30;;;0.60;99.90;;;;;;6218989;23;20801;-82
2023/02/26 02:06:39;;;;;;;2.58;1.30;;;0.60;99.90;;;;;;6188540;23;20635;-84
2023/02/26 02:09:06;;;;;;;2.20;1.20;;;0.60;99.90;;;;;;6216656;23;20396;-82
2023/02/26 02:11:32;;;;;;;3.60;1.40;;;0.50;99.90;;;;;;6190332;23;20388;-82
2023/02/26 02:14:21;;;;;;;2.45;1.20;;;0.40;99.90;;;;;;6217682;23;20397;-82
2023/02/26 02:17:08;;;;;;;3.15;1.27;;;0.50;99.90;;;;;;6214058;23;20358;-84
2023/02/26 02:19:33;;;;;;;3.88;1.58;;;0.50;99.90;;;;;;6186906;23;20346;-83
2023/02/26 02:22:06;;;;;;;2.07;1.20;;;0.40;99.90;;;;;;6217112;23;20361;-85
2023/02/26 02:25:08;;;;;;;3.87;1.20;;;0.50;99.90;;;;;;6212822;23;20420;-88
2023/02/26 02:27:45;;;;;;;2.88;1.27;;;0.30;99.90;;;;;;6210825;23;20883;-83
2023/02/26 02:30:22;;;;;;;3.17;1.15;;;0.30;99.90;;;;;;6213224;23;20350;-83
2023/02/26 02:32:58;;;;;;;2.65;1.38;;;0.40;99.90;;;;;;6213244;23;20342;-86
2023/02/26 02:35:35;;;;;;;3.50;1.30;;;0.40;99.90;;;;;;6213336;23;20453;-84
2023/02/26 02:38:08;;;;;;;3.50;1.27;;;0.30;99.90;;;;;;6211114;23;20354;-83
2023/02/26 02:40:39;;;;;;;2.97;1.50;;;0.30;99.90;;;;;;6213580;23;20346;-84
2023/02/26 02:43:22;;;;;;;1.95;1.30;;;0.40;99.90;;;;;;6214172;23;20800;-86
2023/02/26 02:46:14;;;;;;;2.65;1.20;;;0.60;99.90;;;;;;6216748;23;20350;-83
2023/02/26 02:48:48;;;;;;;4.38;1.70;;;0.40;99.90;;;;;;6214427;23;20362;-82
2023/02/26 02:51:28;;;;;;;2.47;1.37;;;0.40;99.90;;;;;;6188735;23;20417;-83
2023/02/26 02:54:09;;;;;;;2.45;1.20;;;0.50;99.90;;;;;;6214053;23;20354;-82
2023/02/26 02:56:41;;;;;;;3.83;1.40;;;0.40;99.90;;;;;;6215951;23;20422;-82
2023/02/26 02:59:31;;;;;;;4.57;1.25;;;0.30;99.90;;;;;;6210981;23;20362;-83
2023/02/26 03:02:12;;;;;;;4.20;1.50;;;0.40;99.90;;;;;;6214810;23;20991;-86
2023/02/26 03:04:40;;;;;;;2.95;1.23;;;0.30;99.90;;;;;;6214421;23;20345;-83
2023/02/26 03:07:06;;;;;;;5.43;1.63;;;0.30;99.90;;;;;;6187541;23;20389;-83
2023/02/26 03:09:32;;;;;;;3.63;1.20;;;0.40;99.90;;;;;;6216583;23;20366;-83
2023/02/26 03:11:58;;;;;;;2.88;1.33;;;0.50;99.90;;;;;;6193056;23;20361;-82
2023/02/26 03:14:24;;;;;;;2.33;1.23;;;0.50;99.90;;;;;;6216507;23;20607;-83
2023/02/26 03:17:15;;;;;;;2.28;1.33;;;0.50;99.90;;;;;;6218764;23;20357;-83
2023/02/26 03:20:12;;;;;;;2.55;1.40;;;0.50;99.90;;;;;;6217701;23;20334;-84
2023/02/26 03:23:02;;;;;;;3.57;1.40;;;0.50;99.90;;;;;;6217287;23;20647;-86
2023/02/26 03:25:52;;;;;;;2.92;1.52;;;0.50;99.90;;;;;;6185815;23;20354;-84
2023/02/26 03:28:37;;;;;;;2.90;1.35;;;0.60;99.90;;;;;;6211605;23;20844;-85
2023/02/26 03:31:09;;;;;;;2.35;1.10;;;0.50;99.90;;;;;;6213525;23;20745;-84
2023/02/26 03:33:46;;;;;;;2.05;1.20;;;0.60;99.90;;;;;;6211677;23;20420;-83
2023/02/26 03:36:34;;;;;;;2.40;1.25;;;0.50;99.90;;;;;;6213984;23;20370;-84
2023/02/26 03:39:23;;;;;;;4.03;1.63;;;0.50;99.90;;;;;;6212371;23;20338;-85
2023/02/26 03:41:53;;;;;;;2.15;1.52;;;0.60;99.90;;;;;;6214209;23;20362;-83
2023/02/26 03:44:19;;;;;;;2.80;1.73;;;0.70;99.90;;;;;;6214026;23;20768;-83
2023/02/26 03:46:50;;;;;;;2.22;1.30;;;0.70;99.90;;;;;;6214282;23;20389;-85
2023/02/26 03:49:23;;;;;;;2.50;1.20;;;0.60;99.90;;;;;;6216155;23;20338;-84
2023/02/26 03:51:50;;;;;;;2.63;1.45;;;0.60;99.90;;;;;;6188992;23;20393;-82
2023/02/26 03:54:27;;;;;;;3.28;1.67;;;0.60;99.90;;;;;;6216641;23;20338;-82
2023/02/26 03:56:53;;;;;;;2.72;1.45;;;0.70;99.90;;;;;;6188219;23;20374;-84
2023/02/26 03:59:19;;;;;;;2.20;1.38;;;0.70;99.90;;;;;;6216139;23;20353;-82
2023/02/26 04:02:09;;;;;;;4.05;1.30;;;0.70;99.90;;;;;;6189012;23;20821;-82
2023/02/26 04:04:42;;;;;;;4.15;1.50;;;0.70;99.90;;;;;;6216090;23;21053;-83
2023/02/26 04:07:10;;;;;;;2.95;1.40;;;0.60;99.90;;;;;;6215607;23;20350;-84
2023/02/26 04:09:36;;;;;;;3.72;1.48;;;0.60;99.90;;;;;;6190048;23;20357;-83
2023/02/26 04:12:02;;;;;;;2.40;1.27;;;0.70;99.90;;;;;;6215704;23;20416;-84
2023/02/26 04:14:28;;;;;;;1.95;1.33;;;0.70;99.90;;;;;;6219090;23;20412;-83
2023/02/26 04:16:54;;;;;;;3.80;1.50;;;0.70;99.90;;;;;;6212982;23;20354;-86
2023/02/26 04:19:19;;;;;;;4.10;1.30;;;0.80;99.90;;;;;;6213549;23;20339;-84
2023/02/26 04:21:45;;;;;;;3.25;1.20;;;0.60;99.90;;;;;;6185673;23;20374;-86
2023/02/26 04:24:11;;;;;;;3.60;1.90;;;0.70;99.90;;;;;;6215902;23;20346;-84
2023/02/26 04:26:36;;;;;;;2.30;1.40;;;0.70;99.90;;;;;;6213184;23;20341;-84
2023/02/26 04:29:02;;;;;;;3.13;1.33;;;0.90;99.90;;;;;;6219347;23;20366;-84
2023/02/26 04:31:28;;;;;;;3.83;1.67;;;0.70;99.90;;;;;;6213588;23;21019;-82
2023/02/26 04:33:54;;;;;;;3.90;1.58;;;0.80;99.90;;;;;;6220630;23;20398;-83
2023/02/26 04:36:20;;;;;;;2.33;1.40;;;0.80;99.90;;;;;;6220821;23;20468;-82
2023/02/26 04:38:46;;;;;;;3.95;1.40;;;0.80;99.90;;;;;;6195036;23;20358;-83
2023/02/26 04:41:11;;;;;;;3.75;1.35;;;0.80;99.90;;;;;;6218638;23;20696;-83
2023/02/26 04:43:37;;;;;;;3.08;1.40;;;0.80;99.90;;;;;;6195513;23;20354;-83
2023/02/26 04:46:03;;;;;;;2.60;1.42;;;0.70;99.90;;;;;;6221580;23;20338;-83
2023/02/26 04:48:29;;;;;;;2.42;1.20;;;0.70;99.90;;;;;;6195563;23;20412;-84
2023/02/26 04:50:54;;;;;;;2.40;1.30;;;0.70;99.90;;;;;;6192521;23;20357;-82
2023/02/26 04:53:20;;;;;;;4.82;1.60;;;0.70;99.90;;;;;;6195314;23;20386;-82
2023/02/26 04:55:47;;;;;;;3.22;1.58;;;0.60;99.90;;;;;;6194430;23;20453;-82
2023/02/26 04:58:13;;;;;;;2.70;1.40;;;0.70;99.90;;;;;;6219743;23;20365;-83
2023/02/26 05:00:40;;;;;;;4.03;1.30;;;0.70;99.90;;;;;;6192968;23;20408;-82
2023/02/26 05:03:06;;;;;;;2.38;1.17;;;0.70;99.90;;;;;;6218571;23;20437;-83
2023/02/26 05:05:32;;;;;;;3.35;1.27;;;0.70;99.90;;;;;;6189954;23;20358;-85
2023/02/26 05:07:58;;;;;;;2.38;1.30;;;0.60;99.90;;;;;;6214763;23;20405;-83
2023/02/26 05:10:24;;;;;;;3.03;1.30;;;0.70;99.90;;;;;;6193160;23;20408;-85
2023/02/26 05:12:50;;;;;;;3.00;1.20;;;0.60;99.90;;;;;;6216027;23;20396;-83
2023/02/26 05:15:15;;;;;;;3.03;1.33;;;0.80;99.90;;;;;;6191630;23;20381;-84
2023/02/26 05:17:41;;;;;;;4.63;1.70;;;0.80;99.90;;;;;;6189299;23;20354;-85
2023/02/26 05:20:08;;;;;;;3.38;1.60;;;0.70;99.90;;;;;;6190445;23;20346;-86
2023/02/26 05:22:36;;;;;;;3.30;1.40;;;0.80;99.90;;;;;;6192101;23;20352;-84
2023/02/26 05:25:03;;;;;;;2.20;1.20;;;0.80;99.90;;;;;;6215517;23;20366;-85
2023/02/26 05:27:29;;;;;;;3.00;1.40;;;0.80;99.90;;;;;;6214139;23;20346;-85
2023/02/26 05:29:55;;;;;;;2.63;1.48;;;0.70;99.90;;;;;;6217375;23;20361;-85
2023/02/26 05:32:21;;;;;;;2.92;1.27;;;0.80;99.90;;;;;;6217210;23;20330;-84
2023/02/26 05:34:47;;;;;;;3.30;1.60;;;0.90;99.90;;;;;;6215942;23;20728;-86
2023/02/26 05:37:12;;;;;;;2.53;1.33;;;0.90;99.90;;;;;;6212878;23;20342;-86
2023/02/26 05:39:40;;;;;;;3.22;1.30;;;0.80;99.90;;;;;;6215252;23;20373;-85
2023/02/26 05:42:06;;;;;;;4.72;1.30;;;0.70;99.90;;;;;;6215942;23;20366;-82
2023/02/26 05:44:32;;;;;;;3.95;1.70;;;0.80;99.90;;;;;;6219227;23;20349;-82
2023/02/26 05:46:58;;;;;;;3.40;1.40;;;0.70;99.90;;;;;;6218796;23;20350;-83
2023/02/26 05:49:23;;;;;;;2.80;1.27;;;0.80;99.90;;;;;;6192184;23;20342;-84
2023/02/26 05:51:49;;;;;;;2.90;1.20;;;0.80;99.90;;;;;;6217607;23;20446;-82
2023/02/26 05:54:15;;;;;;;3.05;1.70;;;0.70;99.90;;;;;;6217041;23;20473;-84
2023/02/26 05:56:40;;;;;;;3.83;1.30;;;0.80;99.90;;;;;;6189468;23;20441;-83
2023/02/26 05:59:07;;;;;;;3.08;1.50;;;0.70;99.90;;;;;;6216883;23;20428;-83
2023/02/26 06:01:33;;;;;;;1.42;1.00;;;0.90;99.90;;;;;;6216176;23;20342;-86
2023/02/26 06:03:58;;;;;;;3.23;1.30;;;0.90;99.90;;;;;;6189435;23;20490;-84
2023/02/26 06:06:25;;;;;;;2.60;1.40;;;0.90;99.90;;;;;;6216818;23;20350;-85
2023/02/26 06:08:51;;;;;;;2.13;1.17;;;0.90;99.90;;;;;;6188868;23;20418;-83
2023/02/26 06:11:17;;;;;;;2.83;1.43;;;0.90;99.90;;;;;;6218345;23;20789;-82
2023/02/26 06:13:42;;;;;;;2.70;1.37;;;0.90;99.90;;;;;;6191877;23;20395;-83
2023/02/26 06:16:08;;;;;;;3.20;1.20;;;0.90;99.90;;;;;;6221090;23;20862;-82
2023/02/26 06:18:34;;;;;;;3.60;1.53;;;0.80;99.90;;;;;;6189788;23;20346;-83
2023/02/26 06:21:01;;;;;;;3.23;1.30;;;0.90;99.90;;;;;;6216860;23;20330;-82
2023/02/26 06:23:27;;;;;;;2.55;1.30;;;0.90;99.90;;;;;;6220586;23;20357;-84
2023/02/26 06:25:54;;;;;;;2.70;1.20;;;0.90;99.90;;;;;;6191030;23;20380;-86
2023/02/26 06:28:20;;;;;;;1.95;1.20;;;0.80;99.90;;;;;;6193014;23;20354;-85
2023/02/26 06:30:46;;;;;;;3.10;1.30;;;0.80;99.90;;;;;;6219233;23;20396;-83
2023/02/26 06:33:12;;;;;;;2.42;1.20;;;0.90;99.90;;;;;;6213847;23;20812;-85
2023/02/26 06:35:37;;;;;;;4.10;1.20;;;0.80;99.90;;;;;;6186514;23;20370;-85
2023/02/26 06:38:03;;;;;;;4.33;1.30;;;0.80;99.90;;;;;;6214993;23;20342;-86
2023/02/26 06:40:29;;;;;;;4.00;1.55;;;0.90;99.90;;;;;;6186319;23;20392;-83
2023/02/26 06:42:55;;;;;;;3.28;1.50;;;0.80;99.90;;;;;;6214431;23;20353;-85
2023/02/26 06:45:23;;;;;;;3.22;1.20;;;0.90;99.90;;;;;;6189537;23;20423;-85
2023/02/26 06:47:49;;;;;;;2.43;1.30;;;0.90;99.90;;;;;;6190101;23;20358;-87
2023/02/26 06:50:15;;;;;;;1.88;1.10;;;0.90;99.90;;;;;;6186246;23;20449;-86
2023/02/26 06:52:41;;;;;;;3.17;1.20;;;0.90;99.90;;;;;;6186158;23;20412;-86
2023/02/26 06:55:07;;;;;;;2.88;1.40;;;0.90;99.90;;;;;;6191896;23;20374;-85
2023/02/26 06:57:33;;;;;;;2.30;1.10;;;1.00;99.90;;;;;;6214786;23;20674;-85
2023/02/26 06:59:59;;;;;;;3.58;1.75;;;1.10;99.90;;;;;;6191216;23;20353;-84
2023/02/26 07:02:25;;;;;;;3.20;1.30;;;1.00;99.90;;;;;;6217686;23;20366;-86
2023/02/26 07:04:51;;;;;;;3.50;1.38;;;1.00;99.90;;;;;;6189344;23;20831;-86
2023/02/26 07:07:18;;;;;;;2.17;1.20;;;1.20;99.90;;;;;;6193696;23;20370;-85
2023/02/26 07:09:44;;;;;;;3.00;1.20;;;1.20;99.90;;;;;;6190057;23;20361;-86
2023/02/26 07:12:10;;;;;;;3.72;1.38;;;1.20;99.90;;;;;;6214797;23;20358;-85
2023/02/26 07:14:36;;;;;;;3.60;1.38;;;1.30;99.90;;;;;;6188635;23;20812;-88
2023/02/26 07:17:02;;;;;;;2.80;1.27;;;1.30;99.90;;;;;;6212911;23;20406;-85
2023/02/26 07:19:27;;;;;;;3.17;1.40;;;1.30;99.90;;;;;;6216178;23;20372;-87
2023/02/26 07:21:53;;;;;;;2.17;1.27;;;1.30;99.90;;;;;;6212188;23;20361;-83
2023/02/26 07:24:22;;;;;;;3.60;1.38;;;1.30;99.90;;;;;;6212087;23;20350;-83
2023/02/26 07:26:48;;;;;;;3.95;1.30;;;1.40;99.90;;;;;;6187074;23;20388;-86
2023/02/26 07:29:14;;;;;;;2.45;1.15;;;1.50;99.90;;;;;;6186496;23;20646;-85
2023/02/26 07:31:39;;;;;;;2.85;1.20;;;1.50;99.90;;;;;;6186067;23;20440;-87
2023/02/26 07:34:05;;;;;;;2.33;1.30;;;1.40;99.90;;;;;;6189328;23;20381;-84
2023/02/26 07:36:32;;;;;;;2.40;1.50;;;1.40;99.90;;;;;;6217507;23;20365;-85
2023/02/26 07:38:58;;;;;;;3.25;1.50;;;1.40;99.90;;;;;;6191788;23;20429;-89
2023/02/26 07:41:24;;;;;;;3.05;1.40;;;1.40;99.90;;;;;;6192463;23;20361;-84
2023/02/26 07:43:50;;;;;;;2.90;1.40;;;1.40;99.90;;;;;;6193617;23;20377;-85
2023/02/26 07:46:16;;;;;;;3.15;1.38;;;1.40;99.90;;;;;;6193793;23;21763;-84
2023/02/26 07:48:44;;;;;;;3.22;1.30;;;1.30;99.90;;;;;;6219886;23;20361;-83
2023/02/26 07:51:10;;;;;;;2.55;1.50;;;1.30;99.90;;;;;;6219650;23;20663;-83
2023/02/26 07:53:36;;;;;;;4.53;1.47;;;1.20;99.90;;;;;;6191895;23;20357;-85
2023/02/26 07:56:02;;;;;;;3.90;1.65;;;1.30;99.90;;;;;;6221031;23;20486;-85
2023/02/26 07:58:27;;;;;;;2.55;1.40;;;1.30;99.90;;;;;;6193736;23;20721;-84
2023/02/26 08:00:53;;;;;;;2.33;1.20;;;1.90;99.90;;;;;;6194326;23;20358;-86
2023/02/26 08:03:19;;;;;;;3.17;1.40;;;2.30;99.90;;;;;;6220468;23;20374;-85
2023/02/26 08:05:45;;;;;;;8.35;4.57;;;2.80;99.90;;;;;;6215958;23;20813;-85
2023/02/26 08:08:11;;;;;;;9.13;4.93;;;3.20;99.90;;;;;;6215030;23;20345;-83
2023/02/26 08:10:38;;;;;;;3.20;1.65;;;3.40;99.90;;;;;;6217082;23;20441;-85
2023/02/26 08:13:04;;;;;;;3.05;1.52;;;3.30;99.90;;;;;;6188769;23;20433;-87
2023/02/26 08:15:29;;;;;;;2.53;1.40;;;3.30;99.90;;;;;;6213628;23;20396;-84
2023/02/26 08:17:55;;;;;;;2.78;1.17;;;3.20;99.90;;;;;;6210523;23;20809;-87
2023/02/26 08:20:22;;;;;;;3.80;1.35;;;2.70;99.90;;;;;;6213634;23;20330;-87
2023/02/26 08:22:51;;;;;;;2.38;1.13;;;2.40;99.90;;;;;;6186393;23;20444;-83
2023/02/26 08:39:42;;;;;;;;;;;;;;;;;;;;;
2023/02/26 08:42:44;;;;;;;;;;;;;;;;;;;;;
2023/02/26 08:45:34;;;;;;;3.72;1.45;;;3.20;99.90;;;;;;6089267;23;20442;-84
2023/02/26 08:48:26;;;;;;;3.03;1.40;;;2.90;99.90;;;;;;6185432;23;20372;-85
2023/02/26 09:20:14;;;;;;;3.67;1.30;;;4.80;99.90;;;;;;5694795;24;20466;-88
2023/02/26 09:22:47;;;;;;;2.33;1.13;;;5.20;99.90;;;;;;5967560;24;20442;-87
2023/02/26 09:25:14;;;;;;;2.92;1.33;;;5.50;99.90;;;;;;6040475;23;20373;-77
2023/02/26 09:27:39;;;;;;;2.75;1.30;;;5.20;99.90;;;;;;6069872;23;20371;-76
2023/02/26 09:30:09;;;;;;;3.08;1.30;;;5.10;99.90;;;;;;6214844;23;20451;-87
2023/02/26 09:32:38;;;;;;;3.90;1.52;;;5.30;99.90;;;;;;6190588;23;20358;-87
2023/02/26 09:35:21;;;;;;;2.80;1.30;;;6.00;99.90;;;;;;6217548;23;20433;-87
2023/02/26 09:37:47;;;;;;;2.00;1.10;;;6.00;99.90;;;;;;6188108;23;20642;-87
2023/02/26 09:40:48;;;;;;;1.98;1.15;;;7.00;99.90;;;;;;6186973;23;20353;-88
2023/02/26 09:43:41;;;;;;;3.90;1.40;;;7.30;99.90;;;;;;6191432;23;20344;-86
2023/02/26 09:46:18;;;;;;;2.53;1.10;;;7.40;99.90;;;;;;6220292;23;20356;-86
2023/02/26 09:48:46;;;;;;;2.33;1.13;;;7.20;99.90;;;;;;6189748;23;20358;-87
2023/02/26 09:51:19;;;;;;;2.78;1.20;;;6.80;99.90;;;;;;6191036;23;20907;-87
2023/02/26 09:53:50;;;;;;;2.50;1.10;;;5.90;99.90;;;;;;6187957;23;20486;-87
2023/02/26 09:56:23;;;;;;;2.05;1.20;;;5.80;99.90;;;;;;6189307;23;20361;-86
2023/02/26 09:58:52;;;;;;;1.65;1.10;;;5.50;99.90;;;;;;6192399;23;20638;-86
2023/02/26 10:01:58;;;;;;;2.60;1.20;;;6.00;99.90;;;;;;6192914;23;20345;-88
2023/02/26 10:04:42;;;;;;;2.33;1.10;;;6.90;99.90;;;;;;6190154;23;20350;-87
2023/02/26 10:07:18;;;;;;;3.00;1.20;;;6.30;99.90;;;;;;6189386;23;20357;-86
2023/02/26 10:09:54;;;;;;;2.17;1.00;;;5.90;99.90;;;;;;6193194;23;20809;-87
2023/02/26 10:12:23;;;;;;;2.90;1.20;;;6.10;99.90;;;;;;6216164;23;20479;-87
2023/02/26 10:15:12;;;;;;;2.35;1.13;;;6.50;99.90;;;;;;6188696;23;20429;-87
2023/02/26 10:17:47;;;;;;;2.53;1.25;;;6.10;99.90;;;;;;6215511;23;20364;-88
2023/02/26 10:20:44;;;;;;;2.20;1.23;;;5.40;99.90;;;;;;6190209;23;20346;-87
2023/02/26 10:23:36;;;;;;;2.92;1.40;;;5.40;99.90;;;;;;6140415;23;20409;-88
2023/02/26 10:26:30;;;;;;;2.92;1.33;;;5.10;99.90;;;;;;6191316;23;20377;-86
2023/02/26 10:29:25;;;;;;;1.80;1.30;;;5.00;99.90;;;;;;6186752;23;20358;-87
2023/02/26 10:32:12;;;;;;;3.33;1.63;;;4.80;99.90;;;;;;6215743;23;20338;-87
2023/02/26 10:35:05;;;;;;;3.75;1.80;;;6.00;99.90;;;;;;6192604;23;20400;-86
2023/02/26 10:37:53;;;;;;;2.73;1.40;;;6.90;99.90;;;;;;6214797;23;20777;-87
2023/02/26 10:40:25;;;;;;;2.95;1.33;;;5.80;99.90;;;;;;6193658;23;20400;-88
2023/02/26 10:43:20;;;;;;;1.95;1.27;;;4.70;99.90;;;;;;6195910;23;20361;-87
2023/02/26 10:46:05;;;;;;;3.55;1.48;;;4.10;99.90;;;;;;6195441;23;20353;-88
2023/02/26 10:49:05;;;;;;;1.63;1.00;;;4.20;99.90;;;;;;6197053;23;20356;-88
2023/02/26 10:51:42;;;;;;;2.67;1.30;;;4.70;99.90;;;;;;6192227;23;20369;-85
2023/02/26 10:54:22;;;;;;;2.13;1.40;;;5.80;99.90;;;;;;6187833;23;20895;-86
2023/02/26 10:56:50;;;;;;;1.70;1.10;;;5.70;99.90;;;;;;6187808;23;20401;-88
2023/02/26 10:59:16;;;;;;;2.95;1.27;;;6.00;99.90;;;;;;6190786;23;20353;-87
2023/02/26 11:01:42;;;;;;;2.45;1.25;;;6.00;99.90;;;;;;6186554;23;20346;-88
2023/02/26 11:04:23;;;;;;;2.92;1.20;;;5.40;99.90;;;;;;6188026;23;20351;-87
2023/02/26 11:06:56;;;;;;;3.45;1.27;;;4.60;99.90;;;;;;6188152;23;20356;-87
2023/02/26 11:09:27;;;;;;;2.08;1.10;;;4.10;99.90;;;;;;6213744;23;20346;-88
2023/02/26 11:12:19;;;;;;;1.70;1.00;;;4.90;99.90;;;;;;6178898;23;20784;-87
2023/02/26 11:14:52;;;;;;;1.80;1.10;;;5.50;99.90;;;;;;6189178;23;20690;-87
2023/02/26 11:17:28;;;;;;;3.00;1.10;;;6.20;99.90;;;;;;6186276;23;20386;-88
2023/02/26 11:20:07;;;;;;;1.70;1.02;;;6.50;99.90;;;;;;6189931;23;20342;-87
2023/02/26 11:22:44;;;;;;;3.08;1.30;;;6.90;99.90;;;;;;6187464;23;20420;-88
2023/02/26 11:25:30;;;;;;;4.22;1.00;;;6.70;99.90;;;;;;6187820;23;20360;-87
2023/02/26 11:28:40;;;;;;;1.95;1.00;;;7.10;99.90;;;;;;6186440;23;20829;-89
2023/02/26 11:31:18;;;;;;;1.53;1.00;;;7.10;99.90;;;;;;6142479;23;20345;-88
2023/02/26 11:34:05;;;;;;;3.13;0.95;;;6.70;99.90;;;;;;6192741;23;20854;-87
2023/02/26 11:36:33;;;;;;;2.45;1.10;;;6.50;99.90;;;;;;6188521;23;20387;-86
2023/02/26 11:39:14;;;;;;;2.40;1.17;;;5.70;99.90;;;;;;6186346;23;20429;-87
2023/02/26 11:41:41;;;;;;;3.47;1.17;;;4.80;99.90;;;;;;6211945;23;20349;-87
2023/02/26 11:44:21;;;;;;;2.90;1.63;;;4.50;99.90;;;;;;6186227;23;20460;-87
2023/02/26 11:46:53;;;;;;;3.25;1.30;;;4.30;99.90;;;;;;6213638;23;20816;-86
2023/02/26 11:49:31;;;;;;;3.80;1.30;;;4.00;99.90;;;;;;6185900;23;20345;-87
2023/02/26 11:52:24;;;;;;;2.78;1.33;;;3.90;99.90;;;;;;6212416;23;20344;-87
2023/02/26 11:54:58;;;;;;;2.33;1.20;;;3.60;99.90;;;;;;6185385;23;20378;-88
2023/02/26 11:57:28;;;;;;;2.65;1.05;;;3.70;99.90;;;;;;6186154;23;20338;-87
2023/02/26 11:59:57;;;;;;;3.28;1.05;;;4.00;99.90;;;;;;6185709;23;20350;-86
2023/02/26 12:02:26;;;;;;;2.28;1.00;;;4.40;99.90;;;;;;6187099;23;20844;-87
2023/02/26 12:04:57;;;;;;;2.25;1.13;;;4.50;99.90;;;;;;6187838;23;20357;-87
2023/02/26 12:07:25;;;;;;;2.28;1.05;;;4.40;99.90;;;;;;6187012;23;20373;-86
2023/02/26 12:09:51;;;;;;;4.10;1.30;;;4.10;99.90;;;;;;6212738;23;20855;-87
2023/02/26 12:12:32;;;;;;;2.53;0.97;;;3.90;99.90;;;;;;6213710;23;20342;-87
2023/02/26 12:15:28;;;;;;;2.22;1.17;;;4.10;99.90;;;;;;6186654;23;20478;-86
2023/02/26 12:18:28;;;;;;;2.83;1.30;;;4.30;99.90;;;;;;6213346;23;20804;-87
2023/02/26 12:21:26;;;;;;;3.17;1.00;;;4.40;99.90;;;;;;6168539;23;20337;-87
2023/02/26 12:24:22;;;;;;;1.83;1.00;;;4.50;99.90;;;;;;6195810;23;20357;-86
2023/02/26 12:27:06;;;;;;;2.47;1.00;;;4.30;99.90;;;;;;6189609;23;20871;-87
2023/02/26 12:30:04;;;;;;;3.13;1.30;;;4.20;99.90;;;;;;6187950;23;20354;-87
2023/02/26 12:33:28;;;;;;;2.13;0.93;;;4.00;99.90;;;;;;6150883;23;20354;-87
2023/02/26 12:36:22;;;;;;;;;;;;;;;;;;;;;
2023/02/26 12:39:17;;;;;;;;;;;;;;;;;;;;;
2023/02/26 12:41:51;;;;;;;2.08;1.00;;;4.00;99.90;;;;;;6213315;23;20406;-88
2023/02/26 12:44:56;;;;;;;1.88;1.10;;;4.30;99.90;;;;;;6188418;23;20449;-87
2023/02/26 12:48:00;;;;;;;2.45;1.40;;;4.50;99.90;;;;;;6187516;23;20353;-87
2023/02/26 12:51:01;;;;;;;3.80;1.10;;;4.50;99.90;;;;;;6070797;23;20365;-87
2023/02/26 12:54:00;;;;;;;3.08;1.00;;;4.20;99.90;;;;;;6183510;23;20746;-88
2023/02/26 12:56:37;;;;;;;2.08;1.05;;;3.90;99.90;;;;;;6195526;23;20377;-87
2023/02/26 12:59:38;;;;;;;2.50;1.00;;;3.80;99.90;;;;;;6194117;23;20345;-87
2023/02/26 13:02:42;;;;;;;2.73;1.10;;;4.00;99.90;;;;;;6223363;23;20337;-86
2023/02/26 13:05:20;;;;;;;2.17;1.00;;;4.30;99.90;;;;;;6197676;23;20416;-88
2023/02/26 13:08:10;;;;;;;2.05;1.00;;;4.60;99.90;;;;;;6194805;23;20391;-89
2023/02/26 13:11:05;;;;;;;1.95;0.98;;;4.40;99.90;;;;;;6197944;23;20457;-87
2023/02/26 13:13:36;;;;;;;1.33;0.85;;;4.00;99.90;;;;;;6219654;23;20341;-87
2023/02/26 13:16:17;;;;;;;2.10;1.05;;;3.80;99.90;;;;;;6199197;23;20809;-86
2023/02/26 13:19:21;;;;;;;3.78;1.00;;;3.80;99.90;;;;;;6225810;23;20337;-86
2023/02/26 13:27:21;;;;;;;5.25;2.20;;;4.60;99.90;;;;;;5082854;28;20405;-89
2023/02/26 13:29:58;;;;;;;3.92;2.42;;;4.70;99.90;;;;;;5089727;28;20386;-89
2023/02/26 13:32:26;;;;;;;4.32;2.15;;;4.70;99.90;;;;;;5093266;28;20504;-89
2023/02/26 13:35:06;;;;;;;5.25;2.70;;;4.60;99.90;;;;;;5090321;28;20397;-89
2023/02/26 13:37:41;;;;;;;4.37;2.77;;;4.30;99.90;;;;;;5087645;28;20386;-87
2023/02/26 13:40:34;;;;;;;1.70;0.93;;;3.90;99.90;;;;;;5087135;28;20393;-88
2023/02/26 13:46:50;;;;;;;2.42;1.58;;;3.90;99.90;;;;;;5067863;28;20357;-88
2023/02/26 13:49:47;;;;;;;3.10;1.23;;;4.20;99.90;;;;;;5086464;28;20381;-85
2023/02/26 13:52:34;;;;;;;1.73;1.00;;;4.40;99.90;;;;;;5085414;28;20891;-88
2023/02/26 13:55:03;;;;;;;1.92;1.10;;;4.50;99.90;;;;;;5085390;28;20366;-88
2023/02/26 13:57:41;;;;;;;2.10;1.00;;;4.40;99.90;;;;;;5085380;28;20437;-87
2023/02/26 14:00:44;;;;;;;0.95;0.80;;;4.10;99.90;;;;;;5084093;28;20393;-86
2023/02/26 14:03:11;;;;;;;1.70;1.20;;;4.00;99.90;;;;;;5082228;28;20392;-86
2023/02/26 14:06:20;;;;;;;1.40;0.90;;;3.90;99.90;;;;;;5086995;28;20456;-86
2023/02/26 14:08:57;;;;;;;2.17;0.90;;;3.90;99.90;;;;;;5079618;28;20824;-88
2023/02/26 14:11:36;;;;;;;2.20;1.30;;;4.00;99.90;;;;;;5084975;28;20382;-87
2023/02/26 14:14:23;;;;;;;2.00;1.38;;;4.10;99.90;;;;;;5083853;28;20438;-86
2023/02/26 14:17:06;;;;;;;2.30;0.95;;;4.10;99.90;;;;;;5083215;28;20875;-86
2023/02/26 14:19:42;;;;;;;1.40;1.00;;;4.20;99.90;;;;;;5083726;28;20369;-87
2023/02/26 14:22:33;;;;;;;2.30;1.20;;;4.30;99.90;;;;;;5082057;28;20447;-86
2023/02/26 14:25:15;;;;;;;2.30;0.95;;;4.10;99.90;;;;;;5085464;28;20369;-86
2023/02/26 14:27:46;;;;;;;1.87;1.03;;;4.20;99.90;;;;;;5081779;28;20738;-86
2023/02/26 14:30:16;;;;;;;1.13;0.80;;;4.20;99.90;;;;;;5083111;28;20419;-86
2023/02/26 14:32:53;;;;;;;2.33;1.00;;;4.00;99.90;;;;;;5082711;28;20381;-86